createdAt,value
2024-01-18T00:00:30.905Z,94914.78
2024-01-18T00:02:57.609Z,94910.34
2024-01-18T00:05:24.130Z,94915.25
2024-01-18T00:07:50.600Z,94916.19
2024-01-18T00:10:17.020Z,94916.00
2024-01-18T00:12:43.565Z,94917.78
2024-01-18T00:15:10.193Z,94917.88
2024-01-18T00:17:36.773Z,94917.47
2024-01-18T00:20:03.337Z,94926.41
2024-01-18T00:22:29.809Z,94930.75
2024-01-18T00:24:56.273Z,94934.41
2024-01-18T00:27:22.778Z,94941.25
2024-01-18T00:29:49.295Z,94930.78
2024-01-18T00:32:15.782Z,94921.41
2024-01-18T00:34:42.250Z,94921.31
2024-01-18T00:37:08.715Z,94919.41
2024-01-18T00:39:35.250Z,94910.19
2024-01-18T00:42:02.165Z,94903.81
2024-01-18T00:44:28.865Z,94904.78
2024-01-18T00:46:55.409Z,94900.09
2024-01-18T00:49:22.058Z,94893.31
2024-01-18T00:51:48.520Z,94882.94
2024-01-18T00:54:15.034Z,94881.50
2024-01-18T00:56:41.582Z,94869.97
2024-01-18T00:59:08.037Z,94868.09
2024-01-18T01:01:34.529Z,94861.91
2024-01-18T01:04:01.097Z,94877.72
2024-01-18T01:06:27.731Z,94869.97
2024-01-18T01:08:54.227Z,94871.03
2024-01-18T01:11:20.793Z,94880.72
2024-01-18T01:13:47.264Z,94884.50
2024-01-18T01:16:14.058Z,94885.44
2024-01-18T01:18:40.667Z,94884.38
2024-01-18T01:21:07.183Z,94879.97
2024-01-18T01:23:33.644Z,94873.66
2024-01-18T01:26:00.214Z,94856.72
2024-01-18T01:28:26.690Z,94855.31
2024-01-18T01:30:53.178Z,94859.34
2024-01-18T01:33:19.842Z,94858.22
2024-01-18T01:35:46.632Z,94859.47
2024-01-18T01:38:13.094Z,94863.66
2024-01-18T01:40:39.576Z,94866.16
2024-01-18T01:43:06.065Z,94869.28
2024-01-18T01:45:32.678Z,94868.06
2024-01-18T01:47:59.627Z,94857.47
2024-01-18T01:50:26.192Z,94865.75
2024-01-18T01:52:52.664Z,94860.59
2024-01-18T01:55:19.667Z,94857.34
2024-01-18T01:57:46.119Z,94849.06
2024-01-18T02:00:12.579Z,94867.56
2024-01-18T02:02:39.060Z,94868.03
2024-01-18T02:05:05.539Z,94873.69
2024-01-18T02:07:32.017Z,94886.38
2024-01-18T02:09:58.677Z,94882.50
2024-01-18T02:12:25.221Z,94882.38
2024-01-18T02:14:51.698Z,94880.31
2024-01-18T02:17:18.163Z,94891.56
2024-01-18T02:19:44.723Z,94885.75
2024-01-18T02:22:11.279Z,94880.03
2024-01-18T02:24:37.785Z,94874.31
2024-01-18T02:27:04.379Z,94869.69
2024-01-18T02:29:31.148Z,94864.59
2024-01-18T02:31:57.766Z,94869.19
2024-01-18T02:34:24.435Z,94881.13
2024-01-18T02:36:50.937Z,94876.13
2024-01-18T02:39:17.505Z,94864.59
2024-01-18T02:41:43.965Z,94863.72
2024-01-18T02:44:10.428Z,94865.53
2024-01-18T02:46:39.943Z,94865.53
2024-01-18T02:49:06.868Z,94863.25
2024-01-18T02:51:33.428Z,94882.31
2024-01-18T02:53:59.956Z,94882.28
2024-01-18T02:56:26.449Z,94877.78
2024-01-18T02:58:53.034Z,94862.56
2024-01-18T03:01:19.567Z,94867.34
2024-01-18T03:03:46.224Z,94857.47
2024-01-18T03:06:12.851Z,94853.63
2024-01-18T03:08:39.367Z,94848.31
2024-01-18T03:11:06.139Z,94845.19
2024-01-18T03:13:32.610Z,94834.91
2024-01-18T03:16:00.317Z,94842.13
2024-01-18T03:18:27.084Z,94830.16
2024-01-18T03:20:53.821Z,94821.16
2024-01-18T03:23:20.346Z,94815.72
2024-01-18T03:25:48.997Z,94819.25
2024-01-18T03:28:15.474Z,94822.50
2024-01-18T03:30:42.191Z,94822.00
2024-01-18T03:33:09.011Z,94812.19
2024-01-18T03:35:35.585Z,94806.28
2024-01-18T03:38:02.058Z,94800.53
2024-01-18T03:40:28.607Z,94798.66
2024-01-18T03:42:55.195Z,94805.53
2024-01-18T03:45:21.658Z,94808.06
2024-01-18T03:47:48.672Z,94809.00
2024-01-18T03:50:15.223Z,94803.34
2024-01-18T03:52:41.772Z,94812.78
2024-01-18T03:55:08.309Z,94817.88
2024-01-18T03:57:35.004Z,94818.22
2024-01-18T04:00:01.695Z,94818.72
2024-01-18T04:02:28.398Z,94809.16
2024-01-18T04:04:55.048Z,94803.53
2024-01-18T04:07:21.492Z,94809.59
2024-01-18T04:09:47.965Z,94806.16
2024-01-18T04:12:14.495Z,94798.22
2024-01-18T04:14:40.962Z,94787.38
2024-01-18T04:17:07.412Z,94776.31
2024-01-18T04:19:34.043Z,94762.66
2024-01-18T04:22:00.635Z,94754.16
2024-01-18T04:24:27.071Z,94762.84
2024-01-18T04:26:53.524Z,94761.94
2024-01-18T04:29:19.971Z,94768.34
2024-01-18T04:31:46.488Z,94772.41
2024-01-18T04:34:12.974Z,94780.09
2024-01-18T04:36:39.444Z,94776.72
2024-01-18T04:39:05.963Z,94768.22
2024-01-18T04:41:32.686Z,94774.59
2024-01-18T04:43:59.152Z,94769.63
2024-01-18T04:46:25.591Z,94777.09
2024-01-18T04:48:52.222Z,94783.63
2024-01-18T04:51:18.792Z,94805.25
2024-01-18T04:53:45.263Z,94797.75
2024-01-18T04:56:11.708Z,94803.91
2024-01-18T04:58:39.417Z,94811.28
2024-01-18T05:01:07.487Z,94810.34
2024-01-18T05:03:34.045Z,94811.28
2024-01-18T05:06:00.722Z,94818.25
2024-01-18T05:08:27.282Z,94809.81
2024-01-18T05:10:53.783Z,94805.56
2024-01-18T05:13:20.317Z,94803.44
2024-01-18T05:15:46.928Z,94799.84
2024-01-18T05:18:13.627Z,94797.16
2024-01-18T05:20:40.390Z,94801.41
2024-01-18T05:23:06.877Z,94790.72
2024-01-18T05:25:33.401Z,94800.63
2024-01-18T05:27:59.949Z,94791.41
2024-01-18T05:30:26.465Z,94789.22
2024-01-18T05:32:53.083Z,94781.78
2024-01-18T05:35:19.620Z,94783.97
2024-01-18T05:37:46.112Z,94787.22
2024-01-18T05:40:12.659Z,94797.56
2024-01-18T05:42:39.509Z,94791.91
2024-01-18T05:45:06.202Z,94793.66
2024-01-18T05:47:32.920Z,94796.78
2024-01-18T05:49:59.868Z,94813.69
2024-01-18T05:52:26.362Z,94823.19
2024-01-18T05:54:52.806Z,94808.91
2024-01-18T05:57:19.725Z,94806.88
2024-01-18T05:59:46.446Z,94815.97
2024-01-18T06:02:12.897Z,94818.44
2024-01-18T06:04:39.596Z,94818.31
2024-01-18T06:07:06.358Z,94813.91
2024-01-18T06:09:33.048Z,94811.53
2024-01-18T06:11:59.706Z,94823.84
2024-01-18T06:14:26.385Z,94827.00
2024-01-18T06:16:52.900Z,94831.03
2024-01-18T06:19:19.498Z,94822.81
2024-01-18T06:21:46.214Z,94827.63
2024-01-18T06:24:12.791Z,94820.16
2024-01-18T06:26:39.289Z,94826.91
2024-01-18T06:29:05.940Z,94824.91
2024-01-18T06:31:32.472Z,94825.44
2024-01-18T06:33:59.148Z,94828.03
2024-01-18T06:36:25.837Z,94824.38
2024-01-18T06:38:52.319Z,94832.31
2024-01-18T06:41:18.912Z,94825.41
2024-01-18T06:43:45.335Z,94815.84
2024-01-18T06:46:11.863Z,94815.22
2024-01-18T06:48:39.084Z,94820.66
2024-01-18T06:51:09.297Z,94815.84
2024-01-18T06:53:35.746Z,94813.19
2024-01-18T06:56:02.943Z,94807.28
2024-01-18T06:58:29.407Z,94813.84
2024-01-18T07:00:59.232Z,94813.97
2024-01-18T07:03:26.172Z,94811.56
2024-01-18T07:05:52.737Z,94816.41
2024-01-18T07:08:19.406Z,94807.91
2024-01-18T07:10:46.072Z,94824.13
2024-01-18T07:13:13.973Z,94819.63
2024-01-18T07:15:40.556Z,94831.19
2024-01-18T07:18:07.137Z,94838.09
2024-01-18T07:20:42.583Z,94832.63
2024-01-18T07:23:09.171Z,94832.63
2024-01-18T07:25:35.777Z,94832.91
2024-01-18T07:28:02.271Z,94841.03
2024-01-18T07:30:28.946Z,94845.19
2024-01-18T07:32:55.791Z,94855.38
2024-01-18T07:35:22.514Z,94840.06
2024-01-18T07:37:49.424Z,94850.28
2024-01-18T07:40:16.960Z,94849.06
2024-01-18T07:42:43.808Z,94854.91
2024-01-18T07:45:13.355Z,94854.41
2024-01-18T07:47:40.359Z,94853.41
2024-01-18T07:50:18.235Z,94857.75
2024-01-18T07:52:51.696Z,94859.75
2024-01-18T07:55:22.282Z,94857.97
2024-01-18T07:57:49.042Z,94864.72
2024-01-18T08:00:15.943Z,94864.25
2024-01-18T08:02:43.260Z,94857.50
2024-01-18T08:05:09.846Z,94857.00
2024-01-18T08:07:36.401Z,94864.66
2024-01-18T08:10:02.897Z,94858.47
2024-01-18T08:12:29.620Z,94862.97
2024-01-18T08:14:56.548Z,94858.75
2024-01-18T08:17:23.135Z,94869.13
2024-01-18T08:19:49.932Z,94868.53
2024-01-18T08:22:16.931Z,94867.56
2024-01-18T08:24:43.757Z,94869.00
2024-01-18T08:27:10.361Z,94870.00
2024-01-18T08:29:37.101Z,94868.75
2024-01-18T08:32:03.996Z,94873.41
2024-01-18T08:34:30.738Z,94869.81
2024-01-18T08:36:57.279Z,94864.75
2024-01-18T08:39:23.801Z,94869.28
2024-01-18T08:41:50.897Z,94877.69
2024-01-18T08:44:17.637Z,94884.88
2024-01-18T08:46:44.169Z,94887.16
2024-01-18T08:49:10.734Z,94884.47
2024-01-18T08:51:37.567Z,94893.69
2024-01-18T08:54:04.304Z,94902.22
2024-01-18T08:56:31.684Z,94907.34
2024-01-18T08:59:01.424Z,94915.69
2024-01-18T09:01:27.946Z,94912.84
2024-01-18T09:03:57.745Z,94923.38
2024-01-18T09:06:24.460Z,94927.59
2024-01-18T09:08:51.094Z,94935.59
2024-01-18T09:11:17.642Z,94932.47
2024-01-18T09:13:44.093Z,94936.31
2024-01-18T09:16:10.710Z,94937.28
2024-01-18T09:18:37.252Z,94926.44
2024-01-18T09:21:03.711Z,94941.78
2024-01-18T09:23:30.203Z,94947.16
2024-01-18T09:25:56.658Z,94943.03
2024-01-18T09:28:23.232Z,94950.34
2024-01-18T09:30:49.706Z,94952.63
2024-01-18T09:33:16.324Z,94937.84
2024-01-18T09:35:42.898Z,94958.75
2024-01-18T09:38:09.455Z,94960.88
2024-01-18T09:40:35.929Z,94960.66
2024-01-18T09:43:02.671Z,94966.97
2024-01-18T09:45:29.213Z,94964.19
2024-01-18T09:47:55.743Z,94969.59
2024-01-18T09:50:22.325Z,94979.56
2024-01-18T09:52:48.784Z,94967.50
2024-01-18T09:55:15.607Z,94980.13
2024-01-18T09:57:42.144Z,94987.13
2024-01-18T10:00:09.764Z,95004.06
2024-01-18T10:02:36.485Z,95008.75
2024-01-18T10:05:02.954Z,94998.84
2024-01-18T10:07:29.816Z,95000.28
2024-01-18T10:09:56.369Z,95012.34
2024-01-18T10:12:22.810Z,95010.31
2024-01-18T10:14:49.523Z,95029.72
2024-01-18T10:17:15.978Z,95012.34
2024-01-18T10:19:42.533Z,95015.34
2024-01-18T10:22:09.016Z,95020.28
2024-01-18T10:24:35.473Z,95009.69
2024-01-18T10:27:01.948Z,95026.69
2024-01-18T10:29:28.374Z,95021.06
2024-01-18T10:31:54.945Z,95032.66
2024-01-18T10:34:21.688Z,95022.84
2024-01-18T10:36:48.352Z,95025.78
2024-01-18T10:39:14.973Z,95024.66
2024-01-18T10:41:41.499Z,95016.53
2024-01-18T10:44:09.165Z,95028.69
2024-01-18T10:46:36.813Z,95021.25
2024-01-18T10:49:03.422Z,95037.22
2024-01-18T10:51:29.967Z,95029.81
2024-01-18T10:53:58.043Z,95036.34
2024-01-18T10:56:25.252Z,95034.03
2024-01-18T10:58:51.752Z,95026.31
2024-01-18T11:01:18.367Z,95029.81
2024-01-18T11:03:45.175Z,95028.22
2024-01-18T11:06:11.798Z,95029.63
2024-01-18T11:08:38.314Z,95034.72
2024-01-18T11:11:04.843Z,95028.28
2024-01-18T11:13:33.124Z,95028.00
2024-01-18T11:15:59.867Z,95027.34
2024-01-18T11:18:26.428Z,95031.47
2024-01-18T11:20:52.879Z,95018.97
2024-01-18T11:23:19.388Z,95028.28
2024-01-18T11:25:45.852Z,95042.03
2024-01-18T11:28:12.433Z,95041.16
2024-01-18T11:30:38.976Z,95038.13
2024-01-18T11:33:05.534Z,95029.75
2024-01-18T11:35:32.066Z,95050.66
2024-01-18T11:37:58.605Z,95049.00
2024-01-18T11:40:25.193Z,95056.91
2024-01-18T11:42:51.709Z,95060.53
2024-01-18T11:45:18.436Z,95082.00
2024-01-18T11:47:45.097Z,95082.16
2024-01-18T11:50:11.655Z,95079.38
2024-01-18T11:52:38.488Z,95087.91
2024-01-18T11:55:04.950Z,95090.28
2024-01-18T11:57:31.424Z,95077.00
2024-01-18T11:59:57.936Z,95087.56
2024-01-18T12:02:24.588Z,95080.09
2024-01-18T12:04:53.006Z,95084.41
2024-01-18T12:07:19.901Z,95091.81
2024-01-18T12:09:46.466Z,95090.81
2024-01-18T12:12:13.005Z,95099.81
2024-01-18T12:14:39.613Z,95083.78
2024-01-18T12:17:06.048Z,95089.53
2024-01-18T12:19:32.626Z,95081.94
2024-01-18T12:21:59.380Z,95082.19
2024-01-18T12:24:25.941Z,95091.25
2024-01-18T12:26:52.424Z,95088.63
2024-01-18T12:29:18.941Z,95075.84
2024-01-18T12:31:45.362Z,95085.03
2024-01-18T12:34:11.928Z,95083.69
2024-01-18T12:36:38.507Z,95095.41
2024-01-18T12:39:05.090Z,95106.66
2024-01-18T12:41:31.525Z,95113.28
2024-01-18T12:43:57.958Z,95104.94
2024-01-18T12:46:24.426Z,95118.09
2024-01-18T12:48:51.052Z,95122.69
2024-01-18T12:51:17.540Z,95097.88
2024-01-18T12:53:44.034Z,95113.16
2024-01-18T12:56:10.486Z,95130.47
2024-01-18T12:58:36.915Z,95140.94
2024-01-18T13:01:03.526Z,95140.06
2024-01-18T13:03:30.174Z,95140.06
2024-01-18T13:05:56.689Z,95154.06
2024-01-18T13:08:23.210Z,95155.34
2024-01-18T13:10:49.960Z,95147.56
2024-01-18T13:13:16.504Z,95147.41
2024-01-18T13:15:43.097Z,95150.25
2024-01-18T13:18:09.697Z,95156.00
2024-01-18T13:20:36.333Z,95153.00
2024-01-18T13:23:02.809Z,95160.34
2024-01-18T13:25:29.341Z,95163.81
2024-01-18T13:27:55.836Z,95165.47
2024-01-18T13:30:22.509Z,95160.59
2024-01-18T13:32:49.065Z,95158.66
2024-01-18T13:35:15.762Z,95168.47
2024-01-18T13:37:42.263Z,95166.06
2024-01-18T13:40:09.298Z,95180.97
2024-01-18T13:42:36.395Z,95186.44
2024-01-18T13:45:03.005Z,95200.03
2024-01-18T13:47:29.665Z,95200.41
2024-01-18T13:49:56.206Z,95206.22
2024-01-18T13:52:22.848Z,95216.84
2024-01-18T13:54:49.492Z,95222.19
2024-01-18T13:57:16.024Z,95231.56
2024-01-18T13:59:42.726Z,95230.78
2024-01-18T14:02:09.293Z,95232.38
2024-01-18T14:04:35.859Z,95237.44
2024-01-18T14:07:02.382Z,95236.88
2024-01-18T14:09:29.424Z,95234.72
2024-01-18T14:11:56.846Z,95237.69
2024-01-18T14:14:23.617Z,95252.06
2024-01-18T14:16:50.121Z,95246.47
2024-01-18T14:19:16.706Z,95253.38
2024-01-18T14:21:46.137Z,95246.47
2024-01-18T14:24:12.704Z,95249.63
2024-01-18T14:26:39.335Z,95247.81
2024-01-18T14:29:06.200Z,95257.09
2024-01-18T14:31:32.803Z,95260.28
2024-01-18T14:33:59.310Z,95258.97
2024-01-18T14:36:25.874Z,95275.22
2024-01-18T14:38:52.321Z,95274.66
2024-01-18T14:41:18.922Z,95286.59
2024-01-18T14:43:45.538Z,95288.75
2024-01-18T14:46:12.137Z,95292.22
2024-01-18T14:48:38.827Z,95297.25
2024-01-18T14:51:05.398Z,95306.34
2024-01-18T14:53:31.866Z,95310.03
2024-01-18T14:55:58.351Z,95311.34
2024-01-18T14:58:25.039Z,95315.59
2024-01-18T15:00:51.552Z,95326.22
2024-01-18T15:03:18.116Z,95339.28
2024-01-18T15:05:44.662Z,95334.41
2024-01-18T15:08:11.236Z,95349.03
2024-01-18T15:10:37.767Z,95347.19
2024-01-18T15:13:04.311Z,95348.91
2024-01-18T15:15:31.244Z,95360.72
2024-01-18T15:17:57.826Z,95365.25
2024-01-18T15:20:24.464Z,95363.84
2024-01-18T15:22:50.963Z,95372.41
2024-01-18T15:25:17.448Z,95376.72
2024-01-18T15:27:43.953Z,95385.31
2024-01-18T15:30:10.503Z,95384.28
2024-01-18T15:32:37.118Z,95389.81
2024-01-18T15:35:03.754Z,95398.13
2024-01-18T15:37:30.385Z,95397.81
2024-01-18T15:39:56.926Z,95395.75
2024-01-18T15:42:23.578Z,95394.91
2024-01-18T15:44:50.269Z,95404.13
2024-01-18T15:47:16.732Z,95404.34
2024-01-18T15:49:43.264Z,95408.25
2024-01-18T15:52:09.856Z,95411.72
2024-01-18T15:54:36.362Z,95421.47
2024-01-18T15:57:02.809Z,95428.56
2024-01-18T15:59:29.444Z,95425.44
2024-01-18T16:01:55.953Z,95428.84
2024-01-18T16:04:22.440Z,95427.44
2024-01-18T16:06:48.975Z,95426.03
2024-01-18T16:09:15.676Z,95430.16
2024-01-18T16:11:42.142Z,95433.75
2024-01-18T16:14:08.686Z,95436.09
2024-01-18T16:16:35.233Z,95441.00
2024-01-18T16:19:01.844Z,95448.13
2024-01-18T16:21:28.458Z,95450.22
2024-01-18T16:23:54.981Z,95445.44
2024-01-18T16:26:21.489Z,95451.84
2024-01-18T16:28:47.956Z,95463.19
2024-01-18T16:31:14.542Z,95461.97
2024-01-18T16:33:41.182Z,95468.97
2024-01-18T16:36:07.670Z,95473.00
2024-01-18T16:38:34.188Z,95470.75
2024-01-18T16:41:02.634Z,95481.09
2024-01-18T16:43:29.461Z,95487.84
2024-01-18T16:45:56.292Z,95479.88
2024-01-18T16:48:22.930Z,95488.25
2024-01-18T16:50:49.480Z,95490.38
2024-01-18T16:53:15.967Z,95487.75
2024-01-18T16:55:42.500Z,95487.31
2024-01-18T16:58:08.982Z,95485.34
2024-01-18T17:00:35.533Z,95510.22
2024-01-18T17:03:02.002Z,95508.56
2024-01-18T17:05:28.689Z,95504.31
2024-01-18T17:07:55.181Z,95508.19
2024-01-18T17:10:21.660Z,95511.91
2024-01-18T17:12:48.149Z,95511.91
2024-01-18T17:15:14.629Z,95505.81
2024-01-18T17:17:41.168Z,95514.75
2024-01-18T17:20:07.744Z,95514.59
2024-01-18T17:22:34.314Z,95525.59
2024-01-18T17:25:00.830Z,95535.81
2024-01-18T17:27:27.524Z,95536.25
2024-01-18T17:29:54.071Z,95544.22
2024-01-18T17:32:20.540Z,95559.16
2024-01-18T17:34:47.157Z,95565.97
2024-01-18T17:37:13.637Z,95575.59
2024-01-18T17:39:40.127Z,95581.91
2024-01-18T17:42:06.567Z,95594.97
2024-01-18T17:44:33.102Z,95602.81
2024-01-18T17:46:59.717Z,95609.00
2024-01-18T17:49:26.436Z,95614.56
2024-01-18T17:51:53.035Z,95623.00
2024-01-18T17:54:19.566Z,95617.31
2024-01-18T17:56:46.185Z,95625.84
2024-01-18T17:59:12.819Z,95632.84
2024-01-18T18:01:39.263Z,95627.97
2024-01-18T18:04:05.733Z,95631.00
2024-01-18T18:06:32.370Z,95633.28
2024-01-18T18:08:58.857Z,95641.56
2024-01-18T18:11:25.332Z,95638.38
2024-01-18T18:13:51.829Z,95641.56
2024-01-18T18:16:18.278Z,95647.13
2024-01-18T18:18:44.819Z,95638.38
2024-01-18T18:21:11.456Z,95651.75
2024-01-18T18:23:37.965Z,95658.19
2024-01-18T18:26:07.924Z,95667.97
2024-01-18T18:28:35.693Z,95668.16
2024-01-18T18:31:02.157Z,95670.94
2024-01-18T18:33:28.791Z,95686.19
2024-01-18T18:35:55.347Z,95680.97
2024-01-18T18:38:29.700Z,95692.22
2024-01-18T18:40:59.242Z,95708.00
2024-01-18T18:43:25.770Z,95708.53
2024-01-18T18:45:52.217Z,95711.09
2024-01-18T18:48:18.689Z,95716.31
2024-01-18T18:50:45.311Z,95720.66
2024-01-18T18:53:11.939Z,95735.28
2024-01-18T18:55:38.454Z,95734.50
2024-01-18T18:58:04.911Z,95740.22
2024-01-18T19:00:31.385Z,95749.44
2024-01-18T19:02:57.907Z,95754.03
2024-01-18T19:05:24.520Z,95760.88
2024-01-18T19:07:51.066Z,95770.78
2024-01-18T19:10:17.577Z,95778.38
2024-01-18T19:12:44.097Z,95781.75
2024-01-18T19:15:10.549Z,95788.44
2024-01-18T19:17:37.230Z,95787.22
2024-01-18T19:20:03.691Z,95803.09
2024-01-18T19:22:30.149Z,95804.63
2024-01-18T19:24:56.666Z,95809.81
2024-01-18T19:27:23.102Z,95806.78
2024-01-18T19:29:49.598Z,95810.22
2024-01-18T19:32:16.081Z,95824.63
2024-01-18T19:34:42.622Z,95827.28
2024-01-18T19:37:09.163Z,95820.03
2024-01-18T19:39:40.576Z,95830.91
2024-01-18T19:42:10.123Z,95838.63
2024-01-18T19:44:36.676Z,95845.09
2024-01-18T19:47:03.214Z,95845.75
2024-01-18T19:49:29.734Z,95851.16
2024-01-18T19:51:56.216Z,95856.25
2024-01-18T19:54:22.806Z,95858.63
2024-01-18T19:56:49.285Z,95854.50
2024-01-18T19:59:15.948Z,95859.25
2024-01-18T20:01:42.426Z,95876.25
2024-01-18T20:04:08.972Z,95884.31
2024-01-18T20:06:35.535Z,95890.13
2024-01-18T20:09:02.125Z,95893.28
2024-01-18T20:11:28.697Z,95889.09
2024-01-18T20:13:55.199Z,95899.97
2024-01-18T20:16:21.669Z,95908.22
2024-01-18T20:18:49.841Z,95922.63
2024-01-18T20:21:17.919Z,95931.38
2024-01-18T20:23:44.500Z,95936.34
2024-01-18T20:26:12.328Z,95941.59
2024-01-18T20:28:40.285Z,95947.94
2024-01-18T20:31:06.876Z,95960.72
2024-01-18T20:33:33.645Z,95965.88
2024-01-18T20:36:00.353Z,95969.66
2024-01-18T20:38:26.886Z,95974.06
2024-01-18T20:40:53.388Z,95977.06
2024-01-18T20:43:19.831Z,95986.25
2024-01-18T20:45:46.299Z,95984.84
2024-01-18T20:48:13.078Z,95985.47
2024-01-18T20:50:39.692Z,95993.53
2024-01-18T20:53:06.442Z,95996.38
2024-01-18T20:55:33.162Z,96002.84
2024-01-18T20:57:59.614Z,96014.34
2024-01-18T21:00:32.285Z,96016.78
2024-01-18T21:03:02.409Z,96013.88
2024-01-18T21:05:29.337Z,96022.88
2024-01-18T21:07:55.818Z,96022.84
2024-01-18T21:10:22.629Z,96038.75
2024-01-18T21:12:49.200Z,96046.09
2024-01-18T21:15:15.744Z,96048.59
2024-01-18T21:17:44.910Z,96056.91
2024-01-18T21:20:12.585Z,96077.66
2024-01-18T21:22:39.526Z,96076.19
2024-01-18T21:25:06.446Z,96079.22
2024-01-18T21:27:32.901Z,96083.22
2024-01-18T21:30:02.538Z,96092.06
2024-01-18T21:32:29.105Z,96093.75
2024-01-18T21:34:55.883Z,96098.09
2024-01-18T21:37:22.665Z,96103.00
2024-01-18T21:39:49.401Z,96104.06
2024-01-18T21:42:17.854Z,96112.44
2024-01-18T21:44:44.936Z,96121.63
2024-01-18T21:47:11.878Z,96128.06
2024-01-18T21:49:38.930Z,96133.97
2024-01-18T21:52:05.521Z,96145.38
2024-01-18T21:54:32.164Z,96148.72
2024-01-18T21:56:59.399Z,96155.78
2024-01-18T21:59:36.026Z,96153.38
2024-01-18T22:02:07.585Z,96157.97
2024-01-18T22:04:34.709Z,96163.19
2024-01-18T22:07:01.252Z,96165.38
2024-01-18T22:09:33.942Z,96160.47
2024-01-18T22:12:07.635Z,96163.16
2024-01-18T22:14:34.183Z,96169.16
2024-01-18T22:17:00.696Z,96168.25
2024-01-18T22:19:39.968Z,96179.97
2024-01-18T22:22:13.393Z,96184.28
2024-01-18T22:24:40.115Z,96189.28
2024-01-18T22:27:06.913Z,96200.16
2024-01-18T22:29:33.720Z,96219.97
2024-01-18T22:32:00.471Z,96233.16
2024-01-18T22:34:26.985Z,96233.59
2024-01-18T22:36:53.466Z,96243.00
2024-01-18T22:39:20.189Z,96242.72
2024-01-18T22:41:46.984Z,96254.13
2024-01-18T22:44:13.707Z,96258.63
2024-01-18T22:46:40.545Z,96265.22
2024-01-18T22:49:07.323Z,96267.69
2024-01-18T22:51:34.120Z,96282.63
2024-01-18T22:54:00.644Z,96281.22
2024-01-18T22:56:27.363Z,96294.44
2024-01-18T22:58:53.979Z,96302.34
2024-01-18T23:01:20.629Z,96311.63
2024-01-18T23:03:47.611Z,96321.00
2024-01-18T23:06:14.453Z,96334.78
2024-01-18T23:08:40.953Z,96337.19
2024-01-18T23:11:08.518Z,96348.47
2024-01-18T23:13:35.140Z,96344.88
2024-01-18T23:16:01.784Z,96356.97
2024-01-18T23:18:28.458Z,96358.84
2024-01-18T23:20:55.007Z,96358.47
2024-01-18T23:23:21.501Z,96365.38
2024-01-18T23:25:47.965Z,96354.09
2024-01-18T23:28:17.109Z,96359.25
2024-01-18T23:30:43.746Z,96368.94
2024-01-18T23:33:10.623Z,96376.97
2024-01-18T23:35:37.145Z,96364.69
2024-01-18T23:38:03.793Z,96366.56
2024-01-18T23:40:30.302Z,96371.59
2024-01-18T23:42:57.912Z,96371.00
2024-01-18T23:45:26.205Z,96379.28
2024-01-18T23:47:52.903Z,96382.34
2024-01-18T23:50:19.740Z,96392.09
2024-01-18T23:52:46.260Z,96396.13
2024-01-18T23:55:12.693Z,96416.22
2024-01-18T23:57:39.522Z,96429.81
